PWSweather.com
Personal Weather Stations
Station Observations
SHAHALMS1
Eftra, Falkenberg, HA

EftraFalkenberg, HA

Lat: 56.85, Lon: 12.65

Elevation: 140

Station Type:

http://hem.passagen.se/risarp101

High Low Average
Temperature 47.7°F8.7°C 38.8°F3.8°C 42.1°F5.6°C
Dew Point 41.4°F5.2°C 32.9°F0.5°C 36.6°F2.6°C
Winds 12.5 mph 20.1 kmh 5.2 mph 8.4 kmh 8.0 mph W12.9 kmh W
Wind Gusts 24.7 mph39.8 kmh 9.7 mph15.6 kmh 17.0 mph27.4 kmh
Humidity 90% 72% 81%
Pressure 30.27 in1025.1 mb 29.83 in1010.2 mb -
Precipitation 0.00 in0.0 mm - -
Hour Temp Dew Point Humidity Winds Wind Gusts Pressure Precip Precip Rate Daily Precip Total
12:00 AM 39.6°F4.2°C 35.1°F1.7°C 84% 9.1 mph W14.6 kmh W 20.0 mph32.2 kmh 30.27 in1025.1 mb 0.00 in0.0 mm 0.00 in0.0 mm 0.00 in0.0 mm
12:15 AM 39.6°F4.2°C 35.1°F1.7°C 84% 9.6 mph W15.4 kmh W 24.7 mph39.8 kmh 30.27 in1025.1 mb 0.00 in0.0 mm 0.00 in0.0 mm 0.00 in0.0 mm
12:30 AM 39.6°F4.2°C 35.1°F1.7°C 84% 8.3 mph W13.4 kmh W 19.3 mph31.1 kmh 30.27 in1025.1 mb 0.00 in0.0 mm 0.00 in0.0 mm 0.00 in0.0 mm
12:45 AM 39.6°F4.2°C 35.4°F1.9°C 85% 8.0 mph W12.9 kmh W 17.5 mph28.2 kmh 30.27 in1025.1 mb 0.00 in0.0 mm 0.00 in0.0 mm 0.00 in0.0 mm
01:00 AM 39.4°F4.1°C 35.2°F1.8°C 85% 7.1 mph W11.4 kmh W 16.1 mph25.9 kmh 30.27 in1025.1 mb 0.00 in0.0 mm 0.00 in0.0 mm 0.00 in0.0 mm
01:15 AM 39.4°F4.1°C 35.2°F1.8°C 85% 7.6 mph W12.2 kmh W 16.8 mph27.0 kmh 30.27 in1025.1 mb 0.00 in0.0 mm 0.00 in0.0 mm 0.00 in0.0 mm
01:30 AM 39.4°F4.1°C 35.2°F1.8°C 85% 8.2 mph W13.2 kmh W 15.7 mph25.3 kmh 30.27 in1025.1 mb 0.00 in0.0 mm 0.00 in0.0 mm 0.00 in0.0 mm
01:45 AM 39.2°F4.0°C 35.1°F1.7°C 85% 7.5 mph W12.1 kmh W 19.3 mph31.1 kmh 30.27 in1025.1 mb 0.00 in0.0 mm 0.00 in0.0 mm 0.00 in0.0 mm
02:00 AM 39.2°F4.0°C 35.1°F1.7°C 85% 7.8 mph W12.6 kmh W 16.5 mph26.6 kmh 30.27 in1025.1 mb 0.00 in0.0 mm 0.00 in0.0 mm 0.00 in0.0 mm
02:15 AM 39.2°F4.0°C 35.1°F1.7°C 85% 6.5 mph WNW10.5 kmh WNW 16.5 mph26.6 kmh 30.27 in1025.1 mb 0.00 in0.0 mm 0.00 in0.0 mm 0.00 in0.0 mm
02:30 AM 39.0°F3.9°C 34.9°F1.6°C 85% 7.7 mph W12.4 kmh W 15.7 mph25.3 kmh 30.27 in1025.1 mb 0.00 in0.0 mm 0.00 in0.0 mm 0.00 in0.0 mm
02:45 AM 38.8°F3.8°C 34.7°F1.5°C 85% 7.3 mph W11.7 kmh W 17.2 mph27.7 kmh 30.27 in1025.1 mb 0.00 in0.0 mm 0.00 in0.0 mm 0.00 in0.0 mm
03:00 AM 39.0°F3.9°C 35.2°F1.8°C 86% 6.7 mph W10.8 kmh W 14.0 mph22.5 kmh 30.27 in1025.1 mb 0.00 in0.0 mm 0.00 in0.0 mm 0.00 in0.0 mm
03:15 AM 38.8°F3.8°C 35.0°F1.7°C 86% 6.0 mph W9.7 kmh W 16.1 mph25.9 kmh 30.27 in1025.1 mb 0.00 in0.0 mm 0.00 in0.0 mm 0.00 in0.0 mm
03:30 AM 39.0°F3.9°C 35.5°F1.9°C 87% 7.1 mph W11.4 kmh W 15.7 mph25.3 kmh 30.24 in1024.0 mb 0.00 in0.0 mm 0.00 in0.0 mm 0.00 in0.0 mm
03:45 AM 39.2°F4.0°C 35.7°F2.1°C 87% 7.6 mph W12.2 kmh W 15.7 mph25.3 kmh 30.27 in1025.1 mb 0.00 in0.0 mm 0.00 in0.0 mm 0.00 in0.0 mm
04:00 AM 39.2°F4.0°C 35.9°F2.2°C 88% 8.2 mph W13.2 kmh W 15.4 mph24.8 kmh 30.27 in1025.1 mb 0.00 in0.0 mm 0.00 in0.0 mm 0.00 in0.0 mm
04:15 AM 39.4°F4.1°C 36.1°F2.3°C 88% 9.0 mph W14.5 kmh W 24.3 mph39.1 kmh 30.24 in1024.0 mb 0.00 in0.0 mm 0.00 in0.0 mm 0.00 in0.0 mm
04:30 AM 39.4°F4.1°C 36.1°F2.3°C 88% 8.4 mph W13.5 kmh W 17.2 mph27.7 kmh 30.27 in1025.1 mb 0.00 in0.0 mm 0.00 in0.0 mm 0.00 in0.0 mm
04:45 AM 39.2°F4.0°C 35.9°F2.2°C 88% 8.7 mph W14.0 kmh W 17.5 mph28.2 kmh 30.24 in1024.0 mb 0.00 in0.0 mm 0.00 in0.0 mm 0.00 in0.0 mm
05:00 AM 39.2°F4.0°C 35.9°F2.2°C 88% 7.6 mph W12.2 kmh W 18.3 mph29.5 kmh 30.24 in1024.0 mb 0.00 in0.0 mm 0.00 in0.0 mm 0.00 in0.0 mm
05:15 AM 39.2°F4.0°C 35.7°F2.1°C 87% 6.1 mph W9.8 kmh W 12.5 mph20.1 kmh 30.24 in1024.0 mb 0.00 in0.0 mm 0.00 in0.0 mm 0.00 in0.0 mm
05:30 AM 39.2°F4.0°C 35.9°F2.2°C 88% 6.2 mph W10.0 kmh W 12.5 mph20.1 kmh 30.24 in1024.0 mb 0.00 in0.0 mm 0.00 in0.0 mm 0.00 in0.0 mm
05:45 AM 39.4°F4.1°C 36.1°F2.3°C 88% 6.2 mph WNW10.0 kmh WNW 16.1 mph25.9 kmh 30.24 in1024.0 mb 0.00 in0.0 mm 0.00 in0.0 mm 0.00 in0.0 mm
06:00 AM 39.4°F4.1°C 36.1°F2.3°C 88% 5.9 mph WNW9.5 kmh WNW 16.8 mph27.0 kmh 30.24 in1024.0 mb 0.00 in0.0 mm 0.00 in0.0 mm 0.00 in0.0 mm
06:15 AM 39.4°F4.1°C 36.1°F2.3°C 88% 5.2 mph W8.4 kmh W 12.5 mph20.1 kmh 30.24 in1024.0 mb 0.00 in0.0 mm 0.00 in0.0 mm 0.00 in0.0 mm
06:30 AM 39.4°F4.1°C 36.4°F2.4°C 89% 5.2 mph W8.4 kmh W 16.8 mph27.0 kmh 30.24 in1024.0 mb 0.00 in0.0 mm 0.00 in0.0 mm 0.00 in0.0 mm
06:45 AM 39.7°F4.3°C 36.8°F2.7°C 89% 6.4 mph W10.3 kmh W 10.4 mph16.7 kmh 30.21 in1023.0 mb 0.00 in0.0 mm 0.00 in0.0 mm 0.00 in0.0 mm
07:00 AM 39.9°F4.4°C 37.2°F2.9°C 90% 7.4 mph W11.9 kmh W 14.0 mph22.5 kmh 30.24 in1024.0 mb 0.00 in0.0 mm 0.00 in0.0 mm 0.00 in0.0 mm
07:15 AM 40.3°F4.6°C 37.6°F3.1°C 90% 6.9 mph W11.1 kmh W 14.0 mph22.5 kmh 30.21 in1023.0 mb 0.00 in0.0 mm 0.00 in0.0 mm 0.00 in0.0 mm
07:30 AM 40.8°F4.9°C 38.1°F3.4°C 90% 7.3 mph W11.7 kmh W 17.2 mph27.7 kmh 30.24 in1024.0 mb 0.00 in0.0 mm 0.00 in0.0 mm 0.00 in0.0 mm
07:45 AM 41.2°F5.1°C 38.2°F3.4°C 89% 8.1 mph W13.0 kmh W 16.5 mph26.6 kmh 30.24 in1024.0 mb 0.00 in0.0 mm 0.00 in0.0 mm 0.00 in0.0 mm
08:00 AM 41.5°F5.3°C 38.3°F3.5°C 88% 8.7 mph W14.0 kmh W 19.3 mph31.1 kmh 30.21 in1023.0 mb 0.00 in0.0 mm 0.00 in0.0 mm 0.00 in0.0 mm
08:15 AM 41.9°F5.5°C 38.3°F3.5°C 87% 8.5 mph W13.7 kmh W 20.8 mph33.5 kmh 30.21 in1023.0 mb 0.00 in0.0 mm 0.00 in0.0 mm 0.00 in0.0 mm
08:30 AM 42.6°F5.9°C 39.0°F3.9°C 87% 5.4 mph W8.7 kmh W 9.7 mph15.6 kmh 30.24 in1024.0 mb 0.00 in0.0 mm 0.00 in0.0 mm 0.00 in0.0 mm
08:45 AM 43.2°F6.2°C 39.0°F3.9°C 85% 7.4 mph W11.9 kmh W 16.5 mph26.6 kmh 30.24 in1024.0 mb 0.00 in0.0 mm 0.00 in0.0 mm 0.00 in0.0 mm
09:00 AM 43.5°F6.4°C 39.0°F3.9°C 84% 7.9 mph W12.7 kmh W 16.1 mph25.9 kmh 30.21 in1023.0 mb 0.00 in0.0 mm 0.00 in0.0 mm 0.00 in0.0 mm
09:15 AM 43.9°F6.6°C 39.4°F4.1°C 84% 6.7 mph W10.8 kmh W 12.9 mph20.8 kmh 30.21 in1023.0 mb 0.00 in0.0 mm 0.00 in0.0 mm 0.00 in0.0 mm
09:30 AM 44.2°F6.8°C 39.4°F4.1°C 83% 6.9 mph W11.1 kmh W 19.7 mph31.7 kmh 30.27 in1025.1 mb 0.00 in0.0 mm 0.00 in0.0 mm 0.00 in0.0 mm
09:45 AM 44.1°F6.7°C 38.9°F3.8°C 82% 6.3 mph W10.1 kmh W 15.4 mph24.8 kmh 30.24 in1024.0 mb 0.00 in0.0 mm 0.00 in0.0 mm 0.00 in0.0 mm
10:00 AM 44.4°F6.9°C 39.6°F4.2°C 83% 6.2 mph W10.0 kmh W 12.9 mph20.8 kmh 30.27 in1025.1 mb 0.00 in0.0 mm 0.00 in0.0 mm 0.00 in0.0 mm
10:15 AM 45.7°F7.6°C 40.5°F4.7°C 82% 7.2 mph W11.6 kmh W 12.2 mph19.6 kmh 30.24 in1024.0 mb 0.00 in0.0 mm 0.00 in0.0 mm 0.00 in0.0 mm
10:30 AM 46.9°F8.3°C 41.4°F5.2°C 81% 6.2 mph W10.0 kmh W 16.1 mph25.9 kmh 30.24 in1024.0 mb 0.00 in0.0 mm 0.00 in0.0 mm 0.00 in0.0 mm
10:45 AM 46.9°F8.3°C 40.4°F4.7°C 78% 6.7 mph W10.8 kmh W 12.5 mph20.1 kmh 30.24 in1024.0 mb 0.00 in0.0 mm 0.00 in0.0 mm 0.00 in0.0 mm
11:00 AM 46.8°F8.2°C 39.6°F4.2°C 76% 6.7 mph W10.8 kmh W 14.0 mph22.5 kmh 30.24 in1024.0 mb 0.00 in0.0 mm 0.00 in0.0 mm 0.00 in0.0 mm
11:15 AM 46.4°F8.0°C 39.2°F4.0°C 76% 5.7 mph W9.2 kmh W 10.0 mph16.1 kmh 30.21 in1023.0 mb 0.00 in0.0 mm 0.00 in0.0 mm 0.00 in0.0 mm
11:30 AM 47.5°F8.6°C 40.6°F4.8°C 77% 7.3 mph WSW11.7 kmh WSW 15.7 mph25.3 kmh 30.21 in1023.0 mb 0.00 in0.0 mm 0.00 in0.0 mm 0.00 in0.0 mm
11:45 AM 47.7°F8.7°C 39.8°F4.3°C 74% 7.3 mph W11.7 kmh W 16.1 mph25.9 kmh 30.21 in1023.0 mb 0.00 in0.0 mm 0.00 in0.0 mm 0.00 in0.0 mm
12:00 PM 46.6°F8.1°C 38.7°F3.7°C 74% 6.7 mph W10.8 kmh W 15.4 mph24.8 kmh 30.18 in1022.0 mb 0.00 in0.0 mm 0.00 in0.0 mm 0.00 in0.0 mm
12:15 PM 46.2°F7.9°C 38.7°F3.7°C 75% 6.7 mph WSW10.8 kmh WSW 17.2 mph27.7 kmh 30.18 in1022.0 mb 0.00 in0.0 mm 0.00 in0.0 mm 0.00 in0.0 mm
12:30 PM 46.6°F8.1°C 39.4°F4.1°C 76% 7.8 mph WSW12.6 kmh WSW 15.7 mph25.3 kmh 30.15 in1021.0 mb 0.00 in0.0 mm 0.00 in0.0 mm 0.00 in0.0 mm
12:45 PM 47.3°F8.5°C 40.1°F4.5°C 76% 7.6 mph WSW12.2 kmh WSW 17.2 mph27.7 kmh 30.18 in1022.0 mb 0.00 in0.0 mm 0.00 in0.0 mm 0.00 in0.0 mm
01:00 PM 46.9°F8.3°C 38.7°F3.7°C 73% 8.0 mph W12.9 kmh W 16.5 mph26.6 kmh 30.18 in1022.0 mb 0.00 in0.0 mm 0.00 in0.0 mm 0.00 in0.0 mm
01:15 PM 47.1°F8.4°C 39.3°F4.1°C 74% 8.8 mph W14.2 kmh W 15.7 mph25.3 kmh 30.15 in1021.0 mb 0.00 in0.0 mm 0.00 in0.0 mm 0.00 in0.0 mm
01:30 PM 47.1°F8.4°C 38.9°F3.8°C 73% 10.1 mph W16.3 kmh W 20.0 mph32.2 kmh 30.15 in1021.0 mb 0.00 in0.0 mm 0.00 in0.0 mm 0.00 in0.0 mm
01:45 PM 46.6°F8.1°C 38.0°F3.3°C 72% 10.1 mph WSW16.3 kmh WSW 21.8 mph35.1 kmh 30.15 in1021.0 mb 0.00 in0.0 mm 0.00 in0.0 mm 0.00 in0.0 mm
02:00 PM 46.8°F8.2°C 38.6°F3.7°C 73% 10.9 mph W17.5 kmh W 21.1 mph34.0 kmh 30.12 in1020.0 mb 0.00 in0.0 mm 0.00 in0.0 mm 0.00 in0.0 mm
02:15 PM 47.1°F8.4°C 38.9°F3.8°C 73% 10.2 mph W16.4 kmh W 20.4 mph32.8 kmh 30.12 in1020.0 mb 0.00 in0.0 mm 0.00 in0.0 mm 0.00 in0.0 mm
02:30 PM 46.8°F8.2°C 38.2°F3.4°C 72% 9.4 mph WSW15.1 kmh WSW 17.9 mph28.8 kmh 30.15 in1021.0 mb 0.00 in0.0 mm 0.00 in0.0 mm 0.00 in0.0 mm
02:45 PM 46.4°F8.0°C 38.2°F3.4°C 73% 10.6 mph W17.1 kmh W 19.7 mph31.7 kmh 30.12 in1020.0 mb 0.00 in0.0 mm 0.00 in0.0 mm 0.00 in0.0 mm
03:00 PM 46.0°F7.8°C 37.9°F3.3°C 73% 11.4 mph WSW18.3 kmh WSW 23.6 mph38.0 kmh 30.09 in1019.0 mb 0.00 in0.0 mm 0.00 in0.0 mm 0.00 in0.0 mm
03:15 PM 45.9°F7.7°C 38.4°F3.6°C 75% 10.3 mph WSW16.6 kmh WSW 20.0 mph32.2 kmh 30.09 in1019.0 mb 0.00 in0.0 mm 0.00 in0.0 mm 0.00 in0.0 mm
03:30 PM 45.0°F7.2°C 37.5°F3.1°C 75% 11.4 mph SW18.3 kmh SW 20.8 mph33.5 kmh 30.07 in1018.3 mb 0.00 in0.0 mm 0.00 in0.0 mm 0.00 in0.0 mm
03:45 PM 44.8°F7.1°C 37.7°F3.2°C 76% 10.1 mph WSW16.3 kmh WSW 17.9 mph28.8 kmh 30.07 in1018.3 mb 0.00 in0.0 mm 0.00 in0.0 mm 0.00 in0.0 mm
04:00 PM 44.1°F6.7°C 37.3°F2.9°C 77% 10.4 mph WSW16.7 kmh WSW 17.5 mph28.2 kmh 30.04 in1017.3 mb 0.00 in0.0 mm 0.00 in0.0 mm 0.00 in0.0 mm
04:15 PM 43.5°F6.4°C 37.1°F2.8°C 78% 12.5 mph SW20.1 kmh SW 21.1 mph34.0 kmh 30.07 in1018.3 mb 0.00 in0.0 mm 0.00 in0.0 mm 0.00 in0.0 mm
04:30 PM 43.2°F6.2°C 36.8°F2.7°C 78% 12.5 mph WSW20.1 kmh WSW 24.7 mph39.8 kmh 30.07 in1018.3 mb 0.00 in0.0 mm 0.00 in0.0 mm 0.00 in0.0 mm
04:45 PM 42.8°F6.0°C 36.7°F2.6°C 79% 10.4 mph WSW16.7 kmh WSW 19.3 mph31.1 kmh 30.07 in1018.3 mb 0.00 in0.0 mm 0.00 in0.0 mm 0.00 in0.0 mm
05:00 PM 42.4°F5.8°C 36.7°F2.6°C 80% 11.3 mph WSW18.2 kmh WSW 22.5 mph36.2 kmh 30.07 in1018.3 mb 0.00 in0.0 mm 0.00 in0.0 mm 0.00 in0.0 mm
05:15 PM 42.4°F5.8°C 36.7°F2.6°C 80% 8.1 mph W13.0 kmh W 16.5 mph26.6 kmh 30.04 in1017.3 mb 0.00 in0.0 mm 0.00 in0.0 mm 0.00 in0.0 mm
05:30 PM 42.6°F5.9°C 36.2°F2.3°C 78% 8.1 mph W13.0 kmh W 20.8 mph33.5 kmh 30.04 in1017.3 mb 0.00 in0.0 mm 0.00 in0.0 mm 0.00 in0.0 mm
05:45 PM 41.9°F5.5°C 34.9°F1.6°C 76% 9.5 mph W15.3 kmh W 17.5 mph28.2 kmh 30.04 in1017.3 mb 0.00 in0.0 mm 0.00 in0.0 mm 0.00 in0.0 mm
06:00 PM 41.5°F5.3°C 34.5°F1.4°C 76% 8.4 mph W13.5 kmh W 16.1 mph25.9 kmh 30.01 in1016.3 mb 0.00 in0.0 mm 0.00 in0.0 mm 0.00 in0.0 mm
06:15 PM 41.0°F5.0°C 33.3°F0.7°C 74% 10.0 mph W16.1 kmh W 22.2 mph35.7 kmh 29.98 in1015.2 mb 0.00 in0.0 mm 0.00 in0.0 mm 0.00 in0.0 mm
06:30 PM 40.1°F4.5°C 33.1°F0.6°C 76% 9.1 mph W14.6 kmh W 17.2 mph27.7 kmh 30.01 in1016.3 mb 0.00 in0.0 mm 0.00 in0.0 mm 0.00 in0.0 mm
06:45 PM 39.6°F4.2°C 32.9°F0.5°C 77% 8.4 mph W13.5 kmh W 17.2 mph27.7 kmh 29.98 in1015.2 mb 0.00 in0.0 mm 0.00 in0.0 mm 0.00 in0.0 mm
07:00 PM 39.4°F4.1°C 33.1°F0.6°C 78% 7.9 mph W12.7 kmh W 14.0 mph22.5 kmh 30.01 in1016.3 mb 0.00 in0.0 mm 0.00 in0.0 mm 0.00 in0.0 mm
07:15 PM 39.4°F4.1°C 33.4°F0.8°C 79% 8.2 mph W13.2 kmh W 17.2 mph27.7 kmh 30.01 in1016.3 mb 0.00 in0.0 mm 0.00 in0.0 mm 0.00 in0.0 mm
07:30 PM 39.6°F4.2°C 33.6°F0.9°C 79% 8.7 mph W14.0 kmh W 16.1 mph25.9 kmh 29.98 in1015.2 mb 0.00 in0.0 mm 0.00 in0.0 mm 0.00 in0.0 mm
07:45 PM 40.3°F4.6°C 34.3°F1.3°C 79% 8.4 mph W13.5 kmh W 13.6 mph21.9 kmh 29.98 in1015.2 mb 0.00 in0.0 mm 0.00 in0.0 mm 0.00 in0.0 mm
08:00 PM 40.3°F4.6°C 34.3°F1.3°C 79% 8.7 mph W14.0 kmh W 16.8 mph27.0 kmh 29.98 in1015.2 mb 0.00 in0.0 mm 0.00 in0.0 mm 0.00 in0.0 mm
08:15 PM 40.6°F4.8°C 34.6°F1.4°C 79% 7.8 mph W12.6 kmh W 15.4 mph24.8 kmh 29.98 in1015.2 mb 0.00 in0.0 mm 0.00 in0.0 mm 0.00 in0.0 mm
08:30 PM 40.8°F4.9°C 34.8°F1.6°C 79% 5.9 mph W9.5 kmh W 11.1 mph17.9 kmh 29.95 in1014.2 mb 0.00 in0.0 mm 0.00 in0.0 mm 0.00 in0.0 mm
08:45 PM 40.6°F4.8°C 35.0°F1.7°C 80% 6.2 mph W10.0 kmh W 10.7 mph17.2 kmh 29.95 in1014.2 mb 0.00 in0.0 mm 0.00 in0.0 mm 0.00 in0.0 mm
09:00 PM 40.8°F4.9°C 35.1°F1.7°C 80% 6.5 mph WSW10.5 kmh WSW 12.9 mph20.8 kmh 29.92 in1013.2 mb 0.00 in0.0 mm 0.00 in0.0 mm 0.00 in0.0 mm
09:15 PM 40.8°F4.9°C 34.8°F1.6°C 79% 6.7 mph W10.8 kmh W 15.4 mph24.8 kmh 29.95 in1014.2 mb 0.00 in0.0 mm 0.00 in0.0 mm 0.00 in0.0 mm
09:30 PM 41.0°F5.0°C 34.7°F1.5°C 78% 7.8 mph W12.6 kmh W 14.0 mph22.5 kmh 29.95 in1014.2 mb 0.00 in0.0 mm 0.00 in0.0 mm 0.00 in0.0 mm
09:45 PM 41.2°F5.1°C 34.2°F1.2°C 76% 8.4 mph W13.5 kmh W 15.0 mph24.1 kmh 29.92 in1013.2 mb 0.00 in0.0 mm 0.00 in0.0 mm 0.00 in0.0 mm
10:00 PM 41.2°F5.1°C 34.2°F1.2°C 76% 8.0 mph W12.9 kmh W 16.1 mph25.9 kmh 29.92 in1013.2 mb 0.00 in0.0 mm 0.00 in0.0 mm 0.00 in0.0 mm
10:15 PM 41.0°F5.0°C 34.0°F1.1°C 76% 8.8 mph W14.2 kmh W 20.8 mph33.5 kmh 29.89 in1012.2 mb 0.00 in0.0 mm 0.00 in0.0 mm 0.00 in0.0 mm
10:30 PM 41.0°F5.0°C 34.0°F1.1°C 76% 7.9 mph W12.7 kmh W 14.0 mph22.5 kmh 29.89 in1012.2 mb 0.00 in0.0 mm 0.00 in0.0 mm 0.00 in0.0 mm
10:45 PM 40.8°F4.9°C 34.2°F1.2°C 77% 7.3 mph W11.7 kmh W 14.0 mph22.5 kmh 29.86 in1011.2 mb 0.00 in0.0 mm 0.00 in0.0 mm 0.00 in0.0 mm
11:00 PM 40.8°F4.9°C 34.5°F1.4°C 78% 7.8 mph W12.6 kmh W 21.1 mph34.0 kmh 29.89 in1012.2 mb 0.00 in0.0 mm 0.00 in0.0 mm 0.00 in0.0 mm
11:15 PM 40.6°F4.8°C 34.3°F1.3°C 78% 7.4 mph W11.9 kmh W 14.0 mph22.5 kmh 29.89 in1012.2 mb 0.00 in0.0 mm 0.00 in0.0 mm 0.00 in0.0 mm
11:30 PM 40.6°F4.8°C 34.6°F1.4°C 79% 8.4 mph W13.5 kmh W 15.4 mph24.8 kmh 29.86 in1011.2 mb 0.00 in0.0 mm 0.00 in0.0 mm 0.00 in0.0 mm
11:45 PM 40.6°F4.8°C 34.6°F1.4°C 79% 6.8 mph W10.9 kmh W 12.9 mph20.8 kmh 29.83 in1010.2 mb 0.00 in0.0 mm 0.00 in0.0 mm 0.00 in0.0 mm